sensor_id;sensor_type;location;lat;lon;timestamp;P1;durP1;ratioP1;P2;durP2;ratioP2
65009;SDS011;51556;50.002;22.014;2024-03-23T00:52:48;16.70;;;10.10;;
65009;SDS011;51556;50.002;22.014;2024-03-23T00:55:13;17.00;;;9.30;;
65009;SDS011;51556;50.002;22.014;2024-03-23T00:57:39;18.70;;;10.10;;
65009;SDS011;51556;50.002;22.014;2024-03-23T01:00:04;15.80;;;7.90;;
65009;SDS011;51556;50.002;22.014;2024-03-23T01:02:31;16.70;;;9.00;;
65009;SDS011;51556;50.002;22.014;2024-03-23T01:04:57;18.10;;;9.30;;
65009;SDS011;51556;50.002;22.014;2024-03-23T01:07:22;14.10;;;9.20;;
65009;SDS011;51556;50.002;22.014;2024-03-23T01:09:48;16.30;;;9.20;;
65009;SDS011;51556;50.002;22.014;2024-03-23T01:12:13;14.70;;;8.40;;
65009;SDS011;51556;50.002;22.014;2024-03-23T01:14:38;13.00;;;8.00;;
65009;SDS011;51556;50.002;22.014;2024-03-23T01:17:04;13.80;;;8.80;;
65009;SDS011;51556;50.002;22.014;2024-03-23T01:19:29;14.50;;;8.90;;
65009;SDS011;51556;50.002;22.014;2024-03-23T01:21:55;15.60;;;9.40;;
65009;SDS011;51556;50.002;22.014;2024-03-23T01:24:20;14.80;;;8.90;;
65009;SDS011;51556;50.002;22.014;2024-03-23T01:26:46;14.40;;;8.80;;
65009;SDS011;51556;50.002;22.014;2024-03-23T01:29:11;13.70;;;8.20;;
65009;SDS011;51556;50.002;22.014;2024-03-23T01:31:36;12.80;;;8.10;;
65009;SDS011;51556;50.002;22.014;2024-03-23T01:34:02;15.40;;;9.10;;
65009;SDS011;51556;50.002;22.014;2024-03-23T01:36:28;16.90;;;9.40;;
65009;SDS011;51556;50.002;22.014;2024-03-23T01:38:53;15.30;;;9.10;;
65009;SDS011;51556;50.002;22.014;2024-03-23T01:41:19;14.20;;;8.90;;
65009;SDS011;51556;50.002;22.014;2024-03-23T01:43:45;11.70;;;7.30;;
65009;SDS011;51556;50.002;22.014;2024-03-23T01:46:10;14.60;;;9.00;;
65009;SDS011;51556;50.002;22.014;2024-03-23T01:48:36;15.80;;;9.20;;
65009;SDS011;51556;50.002;22.014;2024-03-23T01:51:01;15.70;;;9.70;;
65009;SDS011;51556;50.002;22.014;2024-03-23T01:53:27;15.70;;;8.60;;
65009;SDS011;51556;50.002;22.014;2024-03-23T01:55:53;17.00;;;9.20;;
65009;SDS011;51556;50.002;22.014;2024-03-23T01:58:19;13.30;;;8.30;;
65009;SDS011;51556;50.002;22.014;2024-03-23T02:00:45;16.90;;;9.90;;
65009;SDS011;51556;50.002;22.014;2024-03-23T02:03:23;15.50;;;10.30;;
65009;SDS011;51556;50.002;22.014;2024-03-23T02:05:55;14.00;;;8.70;;
65009;SDS011;51556;50.002;22.014;2024-03-23T02:08:21;14.70;;;8.70;;
65009;SDS011;51556;50.002;22.014;2024-03-23T02:10:48;17.90;;;10.30;;
65009;SDS011;51556;50.002;22.014;2024-03-23T02:13:14;16.60;;;9.80;;
65009;SDS011;51556;50.002;22.014;2024-03-23T02:15:41;19.50;;;9.50;;
65009;SDS011;51556;50.002;22.014;2024-03-23T02:18:09;15.50;;;9.60;;
65009;SDS011;51556;50.002;22.014;2024-03-23T02:20:35;17.90;;;9.70;;
65009;SDS011;51556;50.002;22.014;2024-03-23T02:23:01;15.90;;;9.40;;
65009;SDS011;51556;50.002;22.014;2024-03-23T02:25:27;19.20;;;9.80;;
65009;SDS011;51556;50.002;22.014;2024-03-23T02:27:52;15.70;;;9.20;;
65009;SDS011;51556;50.002;22.014;2024-03-23T02:30:20;17.20;;;9.70;;
65009;SDS011;51556;50.002;22.014;2024-03-23T02:32:46;15.70;;;9.20;;
65009;SDS011;51556;50.002;22.014;2024-03-23T02:35:12;19.60;;;10.10;;
65009;SDS011;51556;50.002;22.014;2024-03-23T02:37:37;15.70;;;9.00;;
65009;SDS011;51556;50.002;22.014;2024-03-23T02:40:02;16.50;;;9.60;;
65009;SDS011;51556;50.002;22.014;2024-03-23T02:42:28;15.50;;;9.00;;
65009;SDS011;51556;50.002;22.014;2024-03-23T02:44:54;16.60;;;9.20;;
65009;SDS011;51556;50.002;22.014;2024-03-23T02:47:19;15.20;;;8.90;;
65009;SDS011;51556;50.002;22.014;2024-03-23T02:49:45;16.60;;;9.20;;
65009;SDS011;51556;50.002;22.014;2024-03-23T02:52:10;17.00;;;10.30;;
65009;SDS011;51556;50.002;22.014;2024-03-23T02:54:35;13.40;;;8.30;;
65009;SDS011;51556;50.002;22.014;2024-03-23T02:57:01;18.20;;;9.10;;
65009;SDS011;51556;50.002;22.014;2024-03-23T02:59:26;14.60;;;8.90;;
65009;SDS011;51556;50.002;22.014;2024-03-23T03:01:51;18.30;;;9.10;;
65009;SDS011;51556;50.002;22.014;2024-03-23T03:04:17;14.30;;;8.60;;
65009;SDS011;51556;50.002;22.014;2024-03-23T03:06:44;15.80;;;9.30;;
65009;SDS011;51556;50.002;22.014;2024-03-23T03:09:12;15.10;;;9.40;;
65009;SDS011;51556;50.002;22.014;2024-03-23T03:11:37;15.30;;;9.60;;
65009;SDS011;51556;50.002;22.014;2024-03-23T03:14:02;18.70;;;9.90;;
65009;SDS011;51556;50.002;22.014;2024-03-23T03:16:28;15.40;;;9.50;;
65009;SDS011;51556;50.002;22.014;2024-03-23T03:18:53;15.90;;;9.80;;
65009;SDS011;51556;50.002;22.014;2024-03-23T03:21:19;17.90;;;9.60;;
65009;SDS011;51556;50.002;22.014;2024-03-23T03:23:44;12.00;;;7.30;;
65009;SDS011;51556;50.002;22.014;2024-03-23T03:26:10;17.90;;;9.00;;
65009;SDS011;51556;50.002;22.014;2024-03-23T03:28:35;17.50;;;9.70;;
65009;SDS011;51556;50.002;22.014;2024-03-23T03:31:00;15.00;;;9.30;;
65009;SDS011;51556;50.002;22.014;2024-03-23T03:33:26;17.20;;;9.60;;
65009;SDS011;51556;50.002;22.014;2024-03-23T03:35:52;17.20;;;9.90;;
65009;SDS011;51556;50.002;22.014;2024-03-23T03:38:18;17.20;;;9.50;;
65009;SDS011;51556;50.002;22.014;2024-03-23T03:40:43;13.90;;;8.90;;
65009;SDS011;51556;50.002;22.014;2024-03-23T03:43:09;17.10;;;10.60;;
65009;SDS011;51556;50.002;22.014;2024-03-23T03:45:34;15.50;;;9.60;;
65009;SDS011;51556;50.002;22.014;2024-03-23T03:48:00;16.10;;;9.20;;
65009;SDS011;51556;50.002;22.014;2024-03-23T03:50:25;15.60;;;9.30;;
65009;SDS011;51556;50.002;22.014;2024-03-23T03:52:50;16.50;;;9.40;;
65009;SDS011;51556;50.002;22.014;2024-03-23T03:55:16;17.90;;;8.90;;
65009;SDS011;51556;50.002;22.014;2024-03-23T03:57:41;17.00;;;10.40;;
65009;SDS011;51556;50.002;22.014;2024-03-23T04:00:07;16.40;;;9.70;;
65009;SDS011;51556;50.002;22.014;2024-03-23T04:02:39;17.10;;;9.60;;
65009;SDS011;51556;50.002;22.014;2024-03-23T04:05:04;14.60;;;9.40;;
65009;SDS011;51556;50.002;22.014;2024-03-23T04:07:30;15.00;;;9.50;;
65009;SDS011;51556;50.002;22.014;2024-03-23T04:09:56;15.40;;;8.70;;
65009;SDS011;51556;50.002;22.014;2024-03-23T04:12:21;15.60;;;8.10;;
65009;SDS011;51556;50.002;22.014;2024-03-23T04:14:48;14.90;;;9.60;;
65009;SDS011;51556;50.002;22.014;2024-03-23T04:17:13;16.20;;;9.80;;
65009;SDS011;51556;50.002;22.014;2024-03-23T04:19:38;15.70;;;9.50;;
65009;SDS011;51556;50.002;22.014;2024-03-23T04:22:04;15.00;;;9.10;;
65009;SDS011;51556;50.002;22.014;2024-03-23T04:24:30;18.40;;;10.20;;
65009;SDS011;51556;50.002;22.014;2024-03-23T04:26:55;18.50;;;9.70;;
65009;SDS011;51556;50.002;22.014;2024-03-23T04:29:20;13.40;;;7.70;;
65009;SDS011;51556;50.002;22.014;2024-03-23T04:31:46;16.30;;;9.90;;
65009;SDS011;51556;50.002;22.014;2024-03-23T04:34:12;14.10;;;9.00;;
65009;SDS011;51556;50.002;22.014;2024-03-23T04:36:38;15.60;;;9.70;;
65009;SDS011;51556;50.002;22.014;2024-03-23T04:39:05;16.50;;;9.10;;
65009;SDS011;51556;50.002;22.014;2024-03-23T04:41:33;14.70;;;9.00;;
65009;SDS011;51556;50.002;22.014;2024-03-23T04:43:59;15.90;;;8.20;;
65009;SDS011;51556;50.002;22.014;2024-03-23T04:46:24;17.30;;;9.80;;
65009;SDS011;51556;50.002;22.014;2024-03-23T04:48:50;20.80;;;10.30;;
65009;SDS011;51556;50.002;22.014;2024-03-23T04:51:24;16.90;;;9.20;;
65009;SDS011;51556;50.002;22.014;2024-03-23T04:53:49;16.10;;;9.20;;
65009;SDS011;51556;50.002;22.014;2024-03-23T04:56:15;17.50;;;10.40;;
65009;SDS011;51556;50.002;22.014;2024-03-23T04:58:42;17.40;;;9.60;;
65009;SDS011;51556;50.002;22.014;2024-03-23T05:01:07;17.60;;;10.20;;
65009;SDS011;51556;50.002;22.014;2024-03-23T05:03:32;16.20;;;9.40;;
65009;SDS011;51556;50.002;22.014;2024-03-23T05:05:58;20.40;;;10.50;;
65009;SDS011;51556;50.002;22.014;2024-03-23T05:08:23;14.70;;;9.50;;
65009;SDS011;51556;50.002;22.014;2024-03-23T05:10:49;14.60;;;8.80;;
65009;SDS011;51556;50.002;22.014;2024-03-23T05:13:14;14.30;;;8.90;;
65009;SDS011;51556;50.002;22.014;2024-03-23T05:15:40;14.30;;;9.10;;
65009;SDS011;51556;50.002;22.014;2024-03-23T05:18:05;15.40;;;9.20;;
65009;SDS011;51556;50.002;22.014;2024-03-23T05:20:31;18.20;;;9.40;;
65009;SDS011;51556;50.002;22.014;2024-03-23T05:22:57;18.40;;;9.90;;
65009;SDS011;51556;50.002;22.014;2024-03-23T05:25:22;15.20;;;9.50;;
65009;SDS011;51556;50.002;22.014;2024-03-23T05:27:48;17.90;;;9.30;;
65009;SDS011;51556;50.002;22.014;2024-03-23T05:30:14;17.00;;;9.50;;
65009;SDS011;51556;50.002;22.014;2024-03-23T05:32:39;15.30;;;8.90;;
65009;SDS011;51556;50.002;22.014;2024-03-23T05:35:07;18.00;;;10.10;;
65009;SDS011;51556;50.002;22.014;2024-03-23T05:37:33;16.20;;;9.50;;
65009;SDS011;51556;50.002;22.014;2024-03-23T05:39:59;13.00;;;8.60;;
65009;SDS011;51556;50.002;22.014;2024-03-23T05:42:25;14.10;;;9.30;;
65009;SDS011;51556;50.002;22.014;2024-03-23T05:44:50;18.00;;;9.60;;
65009;SDS011;51556;50.002;22.014;2024-03-23T05:47:15;16.60;;;9.70;;
65009;SDS011;51556;50.002;22.014;2024-03-23T05:49:41;15.20;;;9.00;;
65009;SDS011;51556;50.002;22.014;2024-03-23T05:52:08;16.80;;;9.70;;
65009;SDS011;51556;50.002;22.014;2024-03-23T05:54:34;17.60;;;9.80;;
65009;SDS011;51556;50.002;22.014;2024-03-23T05:56:59;16.20;;;9.00;;
65009;SDS011;51556;50.002;22.014;2024-03-23T05:59:25;15.40;;;9.30;;
65009;SDS011;51556;50.002;22.014;2024-03-23T06:01:52;15.20;;;9.10;;
65009;SDS011;51556;50.002;22.014;2024-03-23T06:04:17;16.00;;;9.20;;
65009;SDS011;51556;50.002;22.014;2024-03-23T06:06:42;16.10;;;10.00;;
65009;SDS011;51556;50.002;22.014;2024-03-23T06:09:08;16.50;;;9.60;;
65009;SDS011;51556;50.002;22.014;2024-03-23T06:11:33;15.70;;;9.30;;
65009;SDS011;51556;50.002;22.014;2024-03-23T06:13:59;15.70;;;10.50;;
65009;SDS011;51556;50.002;22.014;2024-03-23T06:16:24;16.90;;;10.20;;
65009;SDS011;51556;50.002;22.014;2024-03-23T06:18:50;18.40;;;10.70;;
65009;SDS011;51556;50.002;22.014;2024-03-23T06:21:15;19.30;;;10.90;;
65009;SDS011;51556;50.002;22.014;2024-03-23T06:23:41;15.30;;;10.10;;
65009;SDS011;51556;50.002;22.014;2024-03-23T06:26:07;17.30;;;9.90;;
65009;SDS011;51556;50.002;22.014;2024-03-23T06:28:32;18.00;;;10.10;;
65009;SDS011;51556;50.002;22.014;2024-03-23T06:30:58;15.10;;;9.70;;
65009;SDS011;51556;50.002;22.014;2024-03-23T06:33:23;16.70;;;10.10;;
65009;SDS011;51556;50.002;22.014;2024-03-23T06:35:52;18.20;;;10.10;;
65009;SDS011;51556;50.002;22.014;2024-03-23T06:38:17;15.90;;;8.80;;
65009;SDS011;51556;50.002;22.014;2024-03-23T06:40:43;20.60;;;11.10;;
65009;SDS011;51556;50.002;22.014;2024-03-23T06:43:12;18.10;;;9.50;;
65009;SDS011;51556;50.002;22.014;2024-03-23T06:45:38;15.80;;;10.60;;
65009;SDS011;51556;50.002;22.014;2024-03-23T06:48:04;16.20;;;10.00;;
65009;SDS011;51556;50.002;22.014;2024-03-23T06:50:33;16.50;;;10.20;;
65009;SDS011;51556;50.002;22.014;2024-03-23T06:52:58;18.50;;;10.40;;
65009;SDS011;51556;50.002;22.014;2024-03-23T06:55:24;18.80;;;10.70;;
65009;SDS011;51556;50.002;22.014;2024-03-23T06:57:51;19.30;;;10.90;;
65009;SDS011;51556;50.002;22.014;2024-03-23T07:00:17;21.60;;;11.50;;
65009;SDS011;51556;50.002;22.014;2024-03-23T07:02:43;18.60;;;10.40;;
65009;SDS011;51556;50.002;22.014;2024-03-23T07:05:09;19.70;;;11.60;;
65009;SDS011;51556;50.002;22.014;2024-03-23T07:07:35;16.30;;;8.90;;
65009;SDS011;51556;50.002;22.014;2024-03-23T07:10:03;16.90;;;10.50;;
65009;SDS011;51556;50.002;22.014;2024-03-23T07:12:28;18.70;;;10.30;;
65009;SDS011;51556;50.002;22.014;2024-03-23T07:14:54;19.40;;;9.60;;
65009;SDS011;51556;50.002;22.014;2024-03-23T07:17:19;13.50;;;8.60;;
65009;SDS011;51556;50.002;22.014;2024-03-23T07:19:46;13.50;;;8.40;;
65009;SDS011;51556;50.002;22.014;2024-03-23T07:22:11;19.90;;;10.00;;
65009;SDS011;51556;50.002;22.014;2024-03-23T07:24:37;17.90;;;10.10;;
65009;SDS011;51556;50.002;22.014;2024-03-23T07:27:04;16.20;;;9.90;;
65009;SDS011;51556;50.002;22.014;2024-03-23T07:29:29;17.40;;;10.00;;
65009;SDS011;51556;50.002;22.014;2024-03-23T07:31:55;19.70;;;11.00;;
65009;SDS011;51556;50.002;22.014;2024-03-23T07:34:20;16.40;;;9.80;;
65009;SDS011;51556;50.002;22.014;2024-03-23T07:36:46;15.10;;;8.80;;
65009;SDS011;51556;50.002;22.014;2024-03-23T07:39:11;13.70;;;8.80;;
65009;SDS011;51556;50.002;22.014;2024-03-23T07:41:37;17.80;;;8.90;;
65009;SDS011;51556;50.002;22.014;2024-03-23T07:44:02;15.30;;;9.10;;
65009;SDS011;51556;50.002;22.014;2024-03-23T07:46:28;20.40;;;10.90;;
65009;SDS011;51556;50.002;22.014;2024-03-23T07:48:53;18.30;;;10.40;;
65009;SDS011;51556;50.002;22.014;2024-03-23T07:51:22;15.50;;;9.80;;
65009;SDS011;51556;50.002;22.014;2024-03-23T07:53:48;18.00;;;10.30;;
65009;SDS011;51556;50.002;22.014;2024-03-23T07:56:14;17.70;;;10.00;;
65009;SDS011;51556;50.002;22.014;2024-03-23T07:58:40;15.30;;;9.70;;
65009;SDS011;51556;50.002;22.014;2024-03-23T08:01:10;19.00;;;9.60;;
65009;SDS011;51556;50.002;22.014;2024-03-23T08:03:38;15.90;;;9.50;;
65009;SDS011;51556;50.002;22.014;2024-03-23T08:06:22;19.80;;;11.20;;
65009;SDS011;51556;50.002;22.014;2024-03-23T08:08:49;15.90;;;9.80;;
65009;SDS011;51556;50.002;22.014;2024-03-23T08:11:21;14.80;;;9.20;;
65009;SDS011;51556;50.002;22.014;2024-03-23T08:13:47;19.50;;;9.60;;
65009;SDS011;51556;50.002;22.014;2024-03-23T08:16:12;13.90;;;9.50;;
65009;SDS011;51556;50.002;22.014;2024-03-23T08:18:39;14.50;;;9.70;;
65009;SDS011;51556;50.002;22.014;2024-03-23T08:24:20;14.70;;;9.30;;
65009;SDS011;51556;50.002;22.014;2024-03-23T08:26:46;15.80;;;10.30;;
65009;SDS011;51556;50.002;22.014;2024-03-23T08:29:20;14.30;;;9.60;;
65009;SDS011;51556;50.002;22.014;2024-03-23T08:31:45;16.90;;;10.20;;
65009;SDS011;51556;50.002;22.014;2024-03-23T08:34:11;15.00;;;8.90;;
65009;SDS011;51556;50.002;22.014;2024-03-23T08:36:36;14.20;;;9.30;;
65009;SDS011;51556;50.002;22.014;2024-03-23T08:39:02;18.40;;;10.60;;
65009;SDS011;51556;50.002;22.014;2024-03-23T08:41:27;16.50;;;9.80;;
65009;SDS011;51556;50.002;22.014;2024-03-23T08:43:52;18.40;;;9.20;;
65009;SDS011;51556;50.002;22.014;2024-03-23T08:46:18;12.20;;;8.70;;
65009;SDS011;51556;50.002;22.014;2024-03-23T08:48:44;14.50;;;8.60;;
65009;SDS011;51556;50.002;22.014;2024-03-23T08:51:12;15.00;;;8.80;;
65009;SDS011;51556;50.002;22.014;2024-03-23T08:53:38;16.20;;;9.80;;
65009;SDS011;51556;50.002;22.014;2024-03-23T08:56:04;20.50;;;11.50;;
65009;SDS011;51556;50.002;22.014;2024-03-23T08:58:33;21.80;;;13.20;;
65009;SDS011;51556;50.002;22.014;2024-03-23T09:01:04;19.00;;;11.80;;
65009;SDS011;51556;50.002;22.014;2024-03-23T09:03:31;18.50;;;11.50;;
65009;SDS011;51556;50.002;22.014;2024-03-23T09:05:56;23.00;;;13.00;;
65009;SDS011;51556;50.002;22.014;2024-03-23T09:08:23;16.70;;;10.80;;
65009;SDS011;51556;50.002;22.014;2024-03-23T09:10:49;14.10;;;8.80;;
65009;SDS011;51556;50.002;22.014;2024-03-23T09:13:14;13.00;;;8.30;;
65009;SDS011;51556;50.002;22.014;2024-03-23T09:15:48;12.70;;;8.50;;
65009;SDS011;51556;50.002;22.014;2024-03-23T09:18:15;13.90;;;8.40;;
65009;SDS011;51556;50.002;22.014;2024-03-23T09:20:43;13.00;;;9.10;;
65009;SDS011;51556;50.002;22.014;2024-03-23T09:23:09;14.90;;;9.30;;
65009;SDS011;51556;50.002;22.014;2024-03-23T09:25:40;14.50;;;10.10;;
65009;SDS011;51556;50.002;22.014;2024-03-23T09:28:14;13.70;;;9.40;;
65009;SDS011;51556;50.002;22.014;2024-03-23T09:30:43;14.30;;;9.10;;
65009;SDS011;51556;50.002;22.014;2024-03-23T09:33:08;16.10;;;9.60;;
65009;SDS011;51556;50.002;22.014;2024-03-23T09:35:54;15.40;;;9.50;;
65009;SDS011;51556;50.002;22.014;2024-03-23T09:38:20;17.50;;;9.90;;
65009;SDS011;51556;50.002;22.014;2024-03-23T09:40:54;15.20;;;9.80;;
65009;SDS011;51556;50.002;22.014;2024-03-23T09:43:43;15.40;;;9.90;;
65009;SDS011;51556;50.002;22.014;2024-03-23T09:46:08;15.60;;;9.60;;
65009;SDS011;51556;50.002;22.014;2024-03-23T09:48:34;16.00;;;8.80;;
65009;SDS011;51556;50.002;22.014;2024-03-23T09:51:01;15.70;;;10.40;;
65009;SDS011;51556;50.002;22.014;2024-03-23T09:53:27;19.00;;;9.80;;
65009;SDS011;51556;50.002;22.014;2024-03-23T09:55:52;18.00;;;10.50;;
65009;SDS011;51556;50.002;22.014;2024-03-23T09:58:18;14.70;;;8.80;;
65009;SDS011;51556;50.002;22.014;2024-03-23T10:00:44;16.70;;;10.20;;
65009;SDS011;51556;50.002;22.014;2024-03-23T10:03:10;24.10;;;10.50;;
65009;SDS011;51556;50.002;22.014;2024-03-23T10:05:36;16.40;;;9.50;;
65009;SDS011;51556;50.002;22.014;2024-03-23T10:10:43;12.00;;;7.90;;
65009;SDS011;51556;50.002;22.014;2024-03-23T10:13:09;14.30;;;8.90;;
65009;SDS011;51556;50.002;22.014;2024-03-23T10:15:37;15.20;;;8.80;;
65009;SDS011;51556;50.002;22.014;2024-03-23T10:18:17;14.00;;;9.70;;
65009;SDS011;51556;50.002;22.014;2024-03-23T10:20:44;14.50;;;9.30;;
65009;SDS011;51556;50.002;22.014;2024-03-23T10:23:15;14.40;;;8.90;;
65009;SDS011;51556;50.002;22.014;2024-03-23T10:25:41;19.00;;;9.00;;
65009;SDS011;51556;50.002;22.014;2024-03-23T10:28:07;12.00;;;7.70;;
65009;SDS011;51556;50.002;22.014;2024-03-23T10:30:32;12.90;;;8.30;;
65009;SDS011;51556;50.002;22.014;2024-03-23T10:33:10;16.40;;;10.00;;
65009;SDS011;51556;50.002;22.014;2024-03-23T10:35:36;14.90;;;9.40;;
65009;SDS011;51556;50.002;22.014;2024-03-23T10:38:04;13.70;;;8.40;;
65009;SDS011;51556;50.002;22.014;2024-03-23T10:40:31;16.60;;;9.00;;
65009;SDS011;51556;50.002;22.014;2024-03-23T10:43:04;11.70;;;8.30;;
65009;SDS011;51556;50.002;22.014;2024-03-23T10:45:33;13.90;;;8.00;;
65009;SDS011;51556;50.002;22.014;2024-03-23T10:47:58;13.80;;;8.30;;
65009;SDS011;51556;50.002;22.014;2024-03-23T10:50:24;15.80;;;8.80;;
65009;SDS011;51556;50.002;22.014;2024-03-23T10:52:50;14.80;;;8.70;;
65009;SDS011;51556;50.002;22.014;2024-03-23T10:55:18;14.90;;;8.10;;
65009;SDS011;51556;50.002;22.014;2024-03-23T10:57:53;14.20;;;8.90;;
65009;SDS011;51556;50.002;22.014;2024-03-23T11:00:21;13.50;;;8.10;;
65009;SDS011;51556;50.002;22.014;2024-03-23T11:02:47;12.60;;;8.30;;
65009;SDS011;51556;50.002;22.014;2024-03-23T11:05:31;15.20;;;8.80;;
65009;SDS011;51556;50.002;22.014;2024-03-23T11:07:57;12.00;;;8.10;;
65009;SDS011;51556;50.002;22.014;2024-03-23T11:10:26;13.80;;;8.20;;
65009;SDS011;51556;50.002;22.014;2024-03-23T11:12:56;13.40;;;8.30;;
65009;SDS011;51556;50.002;22.014;2024-03-23T11:15:22;14.00;;;7.90;;
65009;SDS011;51556;50.002;22.014;2024-03-23T11:18:21;13.10;;;8.70;;
65009;SDS011;51556;50.002;22.014;2024-03-23T11:20:45;15.30;;;8.20;;
65009;SDS011;51556;50.002;22.014;2024-03-23T11:23:25;13.70;;;9.00;;
65009;SDS011;51556;50.002;22.014;2024-03-23T11:31:20;13.10;;;7.70;;
65009;SDS011;51556;50.002;22.014;2024-03-23T11:33:48;13.60;;;8.80;;
65009;SDS011;51556;50.002;22.014;2024-03-23T11:36:18;14.50;;;7.90;;
65009;SDS011;51556;50.002;22.014;2024-03-23T11:38:44;12.10;;;8.10;;
65009;SDS011;51556;50.002;22.014;2024-03-23T11:41:09;15.70;;;9.10;;
65009;SDS011;51556;50.002;22.014;2024-03-23T11:43:35;14.60;;;8.80;;
65009;SDS011;51556;50.002;22.014;2024-03-23T11:46:00;13.90;;;8.20;;
65009;SDS011;51556;50.002;22.014;2024-03-23T11:48:28;13.60;;;8.70;;
65009;SDS011;51556;50.002;22.014;2024-03-23T11:50:55;13.80;;;8.70;;
65009;SDS011;51556;50.002;22.014;2024-03-23T11:53:22;11.70;;;8.10;;
65009;SDS011;51556;50.002;22.014;2024-03-23T11:55:50;13.70;;;8.30;;
65009;SDS011;51556;50.002;22.014;2024-03-23T12:00:50;12.00;;;8.30;;
65009;SDS011;51556;50.002;22.014;2024-03-23T12:03:22;11.00;;;7.00;;
65009;SDS011;51556;50.002;22.014;2024-03-23T12:05:51;11.50;;;7.30;;
65009;SDS011;51556;50.002;22.014;2024-03-23T12:08:21;10.50;;;7.10;;
65009;SDS011;51556;50.002;22.014;2024-03-23T12:11:06;11.60;;;7.80;;
65009;SDS011;51556;50.002;22.014;2024-03-23T12:13:32;10.70;;;7.20;;
65009;SDS011;51556;50.002;22.014;2024-03-23T12:16:19;11.60;;;7.50;;
65009;SDS011;51556;50.002;22.014;2024-03-23T12:18:49;9.70;;;6.90;;
65009;SDS011;51556;50.002;22.014;2024-03-23T12:21:16;10.20;;;6.50;;
65009;SDS011;51556;50.002;22.014;2024-03-23T12:23:42;10.90;;;6.50;;
65009;SDS011;51556;50.002;22.014;2024-03-23T12:26:10;10.70;;;7.20;;
65009;SDS011;51556;50.002;22.014;2024-03-23T12:28:37;11.50;;;6.80;;
65009;SDS011;51556;50.002;22.014;2024-03-23T12:31:02;10.90;;;7.00;;
65009;SDS011;51556;50.002;22.014;2024-03-23T12:33:28;11.10;;;7.30;;
65009;SDS011;51556;50.002;22.014;2024-03-23T12:35:53;10.90;;;7.30;;
65009;SDS011;51556;50.002;22.014;2024-03-23T12:38:19;11.50;;;7.30;;
65009;SDS011;51556;50.002;22.014;2024-03-23T12:40:51;9.90;;;7.00;;
65009;SDS011;51556;50.002;22.014;2024-03-23T12:43:16;11.80;;;7.40;;
65009;SDS011;51556;50.002;22.014;2024-03-23T12:45:46;9.60;;;6.30;;
65009;SDS011;51556;50.002;22.014;2024-03-23T12:48:12;11.70;;;6.80;;
65009;SDS011;51556;50.002;22.014;2024-03-23T12:50:40;10.90;;;6.70;;
65009;SDS011;51556;50.002;22.014;2024-03-23T12:56:11;9.00;;;6.10;;
65009;SDS011;51556;50.002;22.014;2024-03-23T12:58:37;14.50;;;8.70;;
65009;SDS011;51556;50.002;22.014;2024-03-23T13:01:02;12.20;;;7.50;;
65009;SDS011;51556;50.002;22.014;2024-03-23T13:03:28;14.20;;;7.80;;
65009;SDS011;51556;50.002;22.014;2024-03-23T13:05:53;11.00;;;7.80;;
65009;SDS011;51556;50.002;22.014;2024-03-23T13:08:19;10.80;;;7.00;;
65009;SDS011;51556;50.002;22.014;2024-03-23T13:10:44;11.00;;;6.20;;
65009;SDS011;51556;50.002;22.014;2024-03-23T13:13:10;13.90;;;8.20;;
65009;SDS011;51556;50.002;22.014;2024-03-23T13:15:35;10.10;;;7.30;;
65009;SDS011;51556;50.002;22.014;2024-03-23T13:18:00;13.90;;;8.30;;
65009;SDS011;51556;50.002;22.014;2024-03-23T13:20:26;14.70;;;8.90;;
65009;SDS011;51556;50.002;22.014;2024-03-23T13:22:51;14.10;;;8.70;;
65009;SDS011;51556;50.002;22.014;2024-03-23T13:25:17;14.10;;;8.60;;
65009;SDS011;51556;50.002;22.014;2024-03-23T13:27:47;13.30;;;8.40;;
65009;SDS011;51556;50.002;22.014;2024-03-23T13:30:12;11.50;;;7.70;;
65009;SDS011;51556;50.002;22.014;2024-03-23T13:32:38;10.90;;;7.10;;
65009;SDS011;51556;50.002;22.014;2024-03-23T13:35:03;10.30;;;6.50;;
65009;SDS011;51556;50.002;22.014;2024-03-23T13:37:28;11.30;;;7.30;;
65009;SDS011;51556;50.002;22.014;2024-03-23T13:39:54;12.00;;;7.40;;
65009;SDS011;51556;50.002;22.014;2024-03-23T13:42:19;13.50;;;7.90;;
65009;SDS011;51556;50.002;22.014;2024-03-23T13:44:45;10.50;;;7.10;;
65009;SDS011;51556;50.002;22.014;2024-03-23T13:47:10;14.50;;;9.20;;
65009;SDS011;51556;50.002;22.014;2024-03-23T13:49:36;19.70;;;10.90;;
65009;SDS011;51556;50.002;22.014;2024-03-23T13:52:01;17.90;;;10.00;;
65009;SDS011;51556;50.002;22.014;2024-03-23T13:54:27;18.10;;;10.50;;
65009;SDS011;51556;50.002;22.014;2024-03-23T13:56:54;14.90;;;9.50;;
65009;SDS011;51556;50.002;22.014;2024-03-23T13:59:24;16.30;;;9.30;;
65009;SDS011;51556;50.002;22.014;2024-03-23T14:01:50;13.80;;;8.50;;
65009;SDS011;51556;50.002;22.014;2024-03-23T14:04:19;15.50;;;9.10;;
65009;SDS011;51556;50.002;22.014;2024-03-23T14:06:45;13.50;;;8.90;;
65009;SDS011;51556;50.002;22.014;2024-03-23T14:09:13;30.90;;;10.50;;
65009;SDS011;51556;50.002;22.014;2024-03-23T14:11:40;15.80;;;8.40;;
65009;SDS011;51556;50.002;22.014;2024-03-23T14:14:09;16.30;;;8.20;;
65009;SDS011;51556;50.002;22.014;2024-03-23T14:16:34;12.90;;;7.60;;
65009;SDS011;51556;50.002;22.014;2024-03-23T14:19:00;12.00;;;7.30;;
65009;SDS011;51556;50.002;22.014;2024-03-23T14:21:25;12.20;;;7.50;;
65009;SDS011;51556;50.002;22.014;2024-03-23T14:24:03;9.50;;;6.80;;
65009;SDS011;51556;50.002;22.014;2024-03-23T14:26:29;14.30;;;7.80;;
65009;SDS011;51556;50.002;22.014;2024-03-23T14:28:54;13.50;;;7.60;;
65009;SDS011;51556;50.002;22.014;2024-03-23T14:31:20;12.90;;;8.30;;
65009;SDS011;51556;50.002;22.014;2024-03-23T14:33:45;13.70;;;7.70;;
65009;SDS011;51556;50.002;22.014;2024-03-23T14:36:15;12.90;;;8.00;;
65009;SDS011;51556;50.002;22.014;2024-03-23T14:38:48;12.80;;;8.50;;
65009;SDS011;51556;50.002;22.014;2024-03-23T14:41:16;12.90;;;8.20;;
65009;SDS011;51556;50.002;22.014;2024-03-23T14:43:44;15.00;;;9.40;;
65009;SDS011;51556;50.002;22.014;2024-03-23T14:46:14;17.90;;;10.10;;
65009;SDS011;51556;50.002;22.014;2024-03-23T14:48:41;14.00;;;8.90;;
65009;SDS011;51556;50.002;22.014;2024-03-23T14:51:09;17.30;;;8.30;;
65009;SDS011;51556;50.002;22.014;2024-03-23T14:53:36;13.10;;;8.70;;
65009;SDS011;51556;50.002;22.014;2024-03-23T14:56:04;12.70;;;8.30;;
65009;SDS011;51556;50.002;22.014;2024-03-23T14:58:30;12.00;;;8.20;;
65009;SDS011;51556;50.002;22.014;2024-03-23T15:01:05;16.10;;;9.40;;
65009;SDS011;51556;50.002;22.014;2024-03-23T15:03:35;15.90;;;9.00;;
65009;SDS011;51556;50.002;22.014;2024-03-23T15:06:01;15.10;;;10.40;;
65009;SDS011;51556;50.002;22.014;2024-03-23T15:08:28;16.20;;;10.20;;
65009;SDS011;51556;50.002;22.014;2024-03-23T15:10:54;17.50;;;10.60;;
65009;SDS011;51556;50.002;22.014;2024-03-23T15:13:20;16.40;;;10.40;;
65009;SDS011;51556;50.002;22.014;2024-03-23T15:15:47;15.40;;;9.70;;
65009;SDS011;51556;50.002;22.014;2024-03-23T15:18:17;16.20;;;9.60;;
65009;SDS011;51556;50.002;22.014;2024-03-23T15:20:56;20.50;;;11.90;;
65009;SDS011;51556;50.002;22.014;2024-03-23T15:23:27;15.00;;;10.10;;
65009;SDS011;51556;50.002;22.014;2024-03-23T15:25:59;15.60;;;10.10;;